Time;durP1;ratioP1;P1;durP2;ratioP2;P2;SDS_P1;SDS_P2;PMS_P1;PMS_P2;Temp;Humidity;BMP_temperature;BMP_pressure;BME280_temperature;BME280_humidity;BME280_pressure;Samples;Min_cycle;Max_cycle;Signal;HPM_P1;HPM_P2
2022/06/12 00:00:28;;;;;;;4.60;1.63;;;;;;;17.77;64.85;101466.47;4997008;28;20052;-83
2022/06/12 00:02:59;;;;;;;5.90;2.25;;;;;;;17.73;65.09;101472.75;5004350;28;20069;-85
2022/06/12 00:05:31;;;;;;;2.33;1.85;;;;;;;17.64;65.61;101473.88;4994334;28;20049;-83
2022/06/12 00:08:03;;;;;;;3.90;1.75;;;;;;;17.58;66.28;101471.38;5017564;28;20052;-84
2022/06/12 00:10:31;;;;;;;3.30;1.25;;;;;;;17.59;66.15;101473.13;5012542;28;20047;-84
2022/06/12 00:13:06;;;;;;;2.63;1.63;;;;;;;17.58;66.49;101464.28;5005674;28;20594;-83
2022/06/12 00:15:33;;;;;;;2.28;1.60;;;;;;;17.60;66.40;101473.09;5003657;28;20464;-83
2022/06/12 00:18:07;;;;;;;3.75;1.38;;;;;;;17.60;67.04;101473.09;5014987;28;20038;-83
2022/06/12 00:20:34;;;;;;;2.97;1.70;;;;;;;17.55;67.34;101479.38;5001821;28;20049;-84
2022/06/12 00:23:12;;;;;;;1.50;1.15;;;;;;;17.46;67.42;101483.16;5018203;28;20045;-85
2022/06/12 00:25:44;;;;;;;3.20;2.00;;;;;;;17.34;68.40;101479.88;5014137;28;20044;-82
2022/06/12 00:28:11;;;;;;;8.40;2.42;;;;;;;17.25;68.82;101485.41;5017876;28;20045;-83
2022/06/12 00:30:38;;;;;;;4.65;1.65;;;;;;;17.19;69.27;101491.72;5025251;28;20378;-85
2022/06/12 00:33:08;;;;;;;4.88;2.05;;;;;;;17.15;69.66;101490.00;5022355;28;20049;-83
2022/06/12 00:35:38;;;;;;;3.33;2.10;;;;;;;17.13;69.90;101493.59;5012627;28;20077;-81
2022/06/12 00:38:13;;;;;;;4.93;3.05;;;;;;;17.12;69.82;101489.25;4991468;28;20297;-83
2022/06/12 00:40:39;;;;;;;4.07;2.45;;;;;;;17.05;70.13;101495.56;5006463;28;20059;-84
2022/06/12 00:43:09;;;;;;;4.10;2.42;;;;;;;17.02;70.19;101494.72;5003832;28;20042;-83
2022/06/12 00:45:47;;;;;;;4.30;1.85;;;;;;;17.02;70.36;101488.56;5008993;28;20048;-80
2022/06/12 00:48:32;;;;;;;5.10;2.00;;;;;;;17.00;70.46;101493.91;5014294;28;20044;-83
2022/06/12 00:51:17;;;;;;;3.90;2.50;;;;;;;16.98;70.67;101487.75;5022277;28;20376;-81
2022/06/12 00:53:54;;;;;;;3.50;1.92;;;;;;;17.01;70.93;101498.28;4987370;28;20041;-79
2022/06/12 00:56:36;;;;;;;4.13;2.40;;;;;;;17.07;70.79;101502.56;4989617;28;20050;-86
2022/06/12 00:59:13;;;;;;;3.38;1.70;;;;;;;16.99;70.91;101497.44;5005635;28;20099;-83
2022/06/12 01:01:59;;;;;;;2.13;1.83;;;;;;;16.86;71.40;101501.22;4987156;28;20053;-81
2022/06/12 01:07:20;;;;;;;2.08;1.88;;;;;;;16.64;72.85;101499.03;5008643;28;20041;-81
2022/06/12 01:09:53;;;;;;;5.93;2.60;;;;;;;16.54;73.54;101495.72;4986564;28;20052;-82
2022/06/12 01:12:23;;;;;;;;;;;;;;;16.44;74.94;101494.16;5000684;28;20045;-82
2022/06/12 01:14:56;;;;;;;3.60;2.40;;;;;;;16.32;74.53;101491.75;5005053;28;19929;-80
2022/06/12 01:17:27;;;;;;;10.15;3.28;;;;;;;16.19;75.80;101488.47;4984207;28;20064;-83
2022/06/12 01:20:05;;;;;;;5.03;2.30;;;;;;;16.12;75.38;101494.78;5007052;28;20308;-81
2022/06/12 01:23:07;;;;;;;8.73;3.60;;;;;;;16.01;75.95;101497.63;4996309;28;20152;-85
2022/06/12 01:26:10;;;;;;;6.63;2.58;;;;;;;15.90;76.36;101487.22;4981775;28;20141;-82
2022/06/12 01:28:46;;;;;;;6.40;3.00;;;;;;;15.81;76.85;101493.56;5017905;28;20157;-82
2022/06/12 01:31:40;;;;;;;12.48;3.97;;;;;;;15.77;77.27;101489.19;4988198;28;20383;-82
2022/06/12 01:34:28;;;;;;;3.92;2.13;;;;;;;15.70;77.54;101491.06;5003393;28;20101;-80
2022/06/12 01:37:34;;;;;;;9.18;3.10;;;;;;;15.66;77.16;101492.00;5022816;28;20063;-81
2022/06/12 01:40:45;;;;;;;5.28;2.70;;;;;;;15.59;78.02;101490.38;4986969;28;20459;-81
2022/06/12 01:43:20;;;;;;;8.48;2.88;;;;;;;15.53;77.96;101491.34;4985345;28;20417;-82
2022/06/12 01:46:15;;;;;;;5.63;2.53;;;;;;;15.45;78.73;101487.97;4996159;28;20068;-82
2022/06/12 01:49:21;;;;;;;9.40;3.00;;;;;;;15.36;79.14;101483.69;5008082;28;20625;-80
2022/06/12 01:52:03;;;;;;;12.00;3.42;;;;;;;15.33;80.28;101485.50;5025881;28;20104;-81
2022/06/12 01:55:14;;;;;;;8.25;3.38;;;;;;;15.30;80.00;101490.84;4992980;28;20665;-82
2022/06/12 01:57:56;;;;;;;9.10;3.30;;;;;;;15.27;79.58;101488.25;5032849;28;20046;-84
2022/06/12 02:00:28;;;;;;;11.30;2.75;;;;;;;15.24;79.51;101490.91;5006472;28;20503;-83
2022/06/12 02:03:34;;;;;;;8.40;3.33;;;;;;;15.22;79.28;101483.91;4975696;28;20185;-81
2022/06/12 02:06:16;;;;;;;9.38;3.95;;;;;;;15.17;79.73;101492.78;5009506;28;20132;-81
2022/06/12 02:08:55;;;;;;;8.43;2.75;;;;;;;15.09;79.63;101486.75;4986717;28;20562;-83
2022/06/12 02:14:25;;;;;;;10.60;2.85;;;;;;;15.04;80.08;101485.06;4986961;28;20048;-85
2022/06/12 02:16:58;;;;;;;10.25;4.03;;;;;;;15.04;79.80;101484.19;5002243;28;20052;-83
2022/06/12 02:19:33;;;;;;;9.67;3.40;;;;;;;14.98;80.20;101478.97;5001224;28;20051;-84
2022/06/12 02:22:27;;;;;;;13.48;3.97;;;;;;;14.95;80.18;101489.59;5014372;28;20053;-83
2022/06/12 02:25:07;;;;;;;6.28;2.63;;;;;;;14.93;80.43;101483.44;5012615;28;20045;-82
2022/06/12 02:27:47;;;;;;;11.55;3.67;;;;;;;14.91;81.23;101487.88;5026185;28;20057;-80
2022/06/12 02:30:26;;;;;;;13.27;3.10;;;;;;;14.86;80.69;101488.81;5012597;28;20673;-81
2022/06/12 02:33:16;;;;;;;7.60;2.85;;;;;;;14.78;81.09;101489.81;5012771;28;20056;-81
2022/06/12 02:36:21;;;;;;;10.63;2.53;;;;;;;14.74;81.19;101485.47;4984892;28;20048;-81
2022/06/12 02:39:13;;;;;;;6.85;2.60;;;;;;;14.66;81.69;101485.56;5014633;28;20037;-83
2022/06/12 02:42:04;;;;;;;9.65;3.00;;;;;;;14.57;81.96;101483.88;5007497;28;20061;-81
2022/06/12 02:44:50;;;;;;;12.75;2.92;;;;;;;14.47;82.51;101485.75;4987273;28;20492;-83
2022/06/12 02:47:30;;;;;;;8.00;3.30;;;;;;;14.45;82.35;101478.78;5005427;28;20381;-82
2022/06/12 02:50:03;;;;;;;6.75;2.65;;;;;;;14.41;82.22;101487.59;5003000;28;20045;-80
2022/06/12 02:52:41;;;;;;;14.70;3.92;;;;;;;14.38;82.31;101478.84;4987527;28;20164;-81
2022/06/12 02:55:11;;;;;;;11.38;2.85;;;;;;;14.37;82.25;101484.13;4993459;28;20076;-81
2022/06/12 02:58:07;;;;;;;6.40;2.50;;;;;;;14.35;82.30;101480.63;5030833;28;20037;-82
2022/06/12 03:04:10;;;;;;;9.52;2.90;;;;;;;14.26;82.85;101484.22;5010410;28;20038;-84
2022/06/12 03:06:39;;;;;;;12.23;3.08;;;;;;;14.19;82.32;101483.44;5005393;28;20179;-81
2022/06/12 03:09:08;;;;;;;8.77;2.78;;;;;;;14.14;83.19;101479.97;5006658;28;20069;-80
2022/06/12 03:11:44;;;;;;;8.60;3.47;;;;;;;14.13;83.21;101480.00;4983791;28;20718;-81
2022/06/12 03:14:18;;;;;;;8.18;2.83;;;;;;;14.11;83.21;101484.41;5007995;28;20140;-82
2022/06/12 03:16:48;;;;;;;9.93;2.60;;;;;;;14.08;83.60;101485.31;5012141;28;20560;-82
2022/06/12 03:19:38;;;;;;;9.98;4.13;;;;;;;14.09;84.53;101476.50;5010974;28;20060;-82
2022/06/12 03:22:33;;;;;;;10.90;3.47;;;;;;;14.11;84.37;101484.41;5027311;28;20037;-84
2022/06/12 03:25:16;;;;;;;9.73;4.00;;;;;;;14.10;84.40;101483.53;5018217;28;20053;-80
2022/06/12 03:28:09;;;;;;;7.57;2.60;;;;;;;14.09;84.65;101486.19;5029542;28;20048;-83
2022/06/12 03:30:43;;;;;;;9.77;3.10;;;;;;;14.06;84.62;101494.97;5012909;28;20029;-83
2022/06/12 03:33:27;;;;;;;9.30;2.88;;;;;;;14.05;84.95;101488.84;4997212;28;20055;-81
2022/06/12 03:36:12;;;;;;;12.98;3.97;;;;;;;14.04;85.19;101488.84;5014710;28;20054;-81
2022/06/12 03:39:11;;;;;;;7.60;2.88;;;;;;;14.02;85.36;101495.91;5011187;28;20049;-81
2022/06/12 03:41:56;;;;;;;11.07;3.38;;;;;;;14.02;85.34;101493.28;5008298;28;20144;-83
2022/06/12 03:45:11;;;;;;;10.45;4.18;;;;;;;14.04;85.28;101488.84;5010532;28;20053;-82
2022/06/12 03:48:29;;;;;;;11.48;3.17;;;;;;;14.03;85.63;101495.88;4934643;28;20047;-80
2022/06/12 03:51:13;;;;;;;11.35;3.20;;;;;;;14.06;86.23;101492.34;5014966;28;20058;-81
2022/06/12 03:54:05;;;;;;;5.50;2.55;;;;;;;14.09;86.01;101494.94;5004653;28;20170;-81
2022/06/12 03:59:38;;;;;;;7.28;3.58;;;;;;;14.15;85.05;101500.16;5016393;28;20072;-82
2022/06/12 04:02:09;;;;;;;5.55;2.67;;;;;;;14.21;84.78;101493.97;5008481;28;20110;-83
2022/06/12 04:04:38;;;;;;;8.43;4.03;;;;;;;14.22;84.59;101495.69;5009242;28;20058;-82
2022/06/12 04:07:09;;;;;;;8.88;4.75;;;;;;;14.25;84.52;101489.50;5007213;28;20044;-81
2022/06/12 04:09:43;;;;;;;10.43;3.55;;;;;;;14.26;84.50;101492.13;5006990;28;20045;-82
2022/06/12 04:15:26;;;;;;;6.15;2.78;;;;;;;14.33;84.43;101500.84;5029647;28;20045;-82
2022/06/12 04:18:03;;;;;;;6.30;3.33;;;;;;;14.35;84.56;101499.06;5014278;28;20041;-83
2022/06/12 04:20:39;;;;;;;9.23;3.30;;;;;;;14.39;84.52;101500.78;5003467;28;20042;-80
2022/06/12 04:23:18;;;;;;;11.90;3.45;;;;;;;14.44;84.27;101498.09;5028795;28;20037;-81
2022/06/12 04:25:59;;;;;;;6.97;2.85;;;;;;;14.45;84.36;101500.72;5025445;28;20099;-82
2022/06/12 04:28:38;;;;;;;5.82;3.13;;;;;;;14.47;84.29;101495.41;5010376;28;20068;-80
2022/06/12 04:31:19;;;;;;;8.88;2.90;;;;;;;14.55;83.84;101496.22;5017773;28;20051;-80
2022/06/12 04:34:10;;;;;;;5.15;2.70;;;;;;;14.61;83.71;101496.13;5029295;28;20053;-81
2022/06/12 04:36:39;;;;;;;9.60;2.97;;;;;;;14.70;83.33;101501.31;5031097;28;20056;-82
2022/06/12 04:39:17;;;;;;;9.80;3.03;;;;;;;14.77;82.77;101502.13;5008624;28;20045;-81
2022/06/12 04:41:55;;;;;;;9.40;3.08;;;;;;;14.86;82.21;101491.47;5011421;28;20060;-80
2022/06/12 04:44:29;;;;;;;8.55;2.97;;;;;;;14.96;81.91;101492.19;4998183;28;20561;-79
2022/06/12 04:47:00;;;;;;;11.50;3.00;;;;;;;15.05;80.60;101499.09;5010542;28;20049;-83
2022/06/12 04:49:40;;;;;;;9.32;3.03;;;;;;;15.04;80.33;101490.34;5013871;28;20048;-81
2022/06/12 04:52:14;;;;;;;9.40;3.72;;;;;;;15.07;80.47;101488.53;5001674;28;20064;-82
2022/06/12 04:54:44;;;;;;;11.35;3.10;;;;;;;15.14;80.05;101487.56;5026904;28;20037;-81
2022/06/12 04:57:14;;;;;;;9.63;2.70;;;;;;;15.20;79.82;101474.25;5011480;28;20280;-81
2022/06/12 04:59:45;;;;;;;13.27;3.53;;;;;;;15.27;79.21;101475.94;4990850;28;20052;-81
2022/06/12 05:02:30;;;;;;;11.20;3.05;;;;;;;15.35;78.56;101479.31;4996932;28;20054;-82
2022/06/12 05:04:57;;;;;;;11.48;2.97;;;;;;;15.41;78.42;101475.72;5008442;28;20037;-80
2022/06/12 05:07:27;;;;;;;18.35;4.18;;;;;;;15.46;77.34;101473.00;4987810;28;20041;-82
2022/06/12 05:09:54;;;;;;;8.55;3.28;;;;;;;15.48;77.41;101484.41;4996163;28;20144;-80
2022/06/12 05:12:24;;;;;;;7.53;2.65;;;;;;;15.53;77.53;101480.78;5000775;28;20053;-82
2022/06/12 05:14:51;;;;;;;6.03;2.53;;;;;;;15.63;77.29;101472.72;5007849;28;20355;-81
2022/06/12 05:17:20;;;;;;;7.05;2.85;;;;;;;15.69;76.83;101467.34;5007471;28;20657;-83
2022/06/12 05:19:48;;;;;;;8.95;2.70;;;;;;;15.74;76.61;101465.50;5008619;28;20072;-82
2022/06/12 05:22:17;;;;;;;12.48;3.67;;;;;;;15.76;76.28;101463.72;4997769;28;20632;-85
2022/06/12 05:24:47;;;;;;;13.65;4.00;;;;;;;15.79;76.20;101463.63;5006195;28;20045;-82
2022/06/12 05:27:21;;;;;;;9.02;3.33;;;;;;;15.83;76.29;101468.00;4993771;28;20137;-81
2022/06/12 05:29:49;;;;;;;11.48;3.33;;;;;;;15.88;75.73;101466.16;4993859;28;20095;-82
2022/06/12 05:32:23;;;;;;;8.75;3.92;;;;;;;15.93;75.46;101475.75;5012971;28;20833;-83
2022/06/12 05:34:54;;;;;;;7.80;2.85;;;;;;;15.95;75.36;101480.09;5014221;28;20045;-83
2022/06/12 05:37:25;;;;;;;8.88;3.00;;;;;;;16.00;75.29;101478.25;4996365;28;20040;-84
2022/06/12 05:39:55;;;;;;;11.25;3.10;;;;;;;16.07;75.27;101486.94;5002613;28;20065;-83
2022/06/12 05:42:25;;;;;;;12.55;3.33;;;;;;;16.13;74.93;101473.63;4983690;28;20050;-83
2022/06/12 05:44:52;;;;;;;6.88;2.83;;;;;;;16.16;74.35;101476.19;5026310;28;20052;-81
2022/06/12 05:47:19;;;;;;;10.48;3.40;;;;;;;16.21;74.61;101469.03;5011258;28;20098;-80
2022/06/12 05:49:46;;;;;;;12.82;2.58;;;;;;;16.28;74.41;101467.19;5007189;28;20046;-83
2022/06/12 05:52:12;;;;;;;13.07;2.90;;;;;;;16.37;74.35;101467.00;5005121;28;20054;-81
2022/06/12 05:54:40;;;;;;;8.07;2.85;;;;;;;16.46;73.92;101471.19;5004485;28;20046;-81
2022/06/12 05:57:11;;;;;;;10.68;2.70;;;;;;;16.50;73.96;101475.53;5004214;28;20547;-84
2022/06/12 05:59:38;;;;;;;6.95;2.50;;;;;;;16.55;73.57;101478.06;5010627;28;20030;-84
2022/06/12 06:02:06;;;;;;;7.10;2.50;;;;;;;16.59;73.49;101470.97;4994555;28;20802;-80
2022/06/12 06:04:37;;;;;;;15.60;4.65;;;;;;;16.65;73.39;101473.47;4993449;28;20055;-80
2022/06/12 06:07:05;;;;;;;9.60;3.03;;;;;;;16.67;73.14;101475.19;5014068;28;20056;-83
2022/06/12 06:09:31;;;;;;;10.68;3.38;;;;;;;16.75;72.91;101482.06;5021778;28;20046;-83
2022/06/12 06:11:58;;;;;;;12.63;3.38;;;;;;;16.83;72.39;101477.47;4994051;28;20061;-81
2022/06/12 06:14:25;;;;;;;6.43;2.55;;;;;;;16.89;71.97;101487.06;5024688;28;20041;-82
2022/06/12 06:16:51;;;;;;;11.13;3.60;;;;;;;16.95;70.84;101482.53;4996262;28;20178;-82
2022/06/12 06:19:20;;;;;;;12.30;4.07;;;;;;;17.00;70.88;101488.59;5007367;28;20046;-81
2022/06/12 06:21:48;;;;;;;8.80;2.67;;;;;;;17.06;70.29;101486.72;4992888;28;20056;-81
2022/06/12 06:24:15;;;;;;;12.50;3.10;;;;;;;17.10;70.29;101485.75;4984925;28;20052;-82
2022/06/12 06:26:45;;;;;;;6.50;2.75;;;;;;;17.14;70.23;101488.31;5005517;28;20049;-82
2022/06/12 06:29:13;;;;;;;13.35;3.38;;;;;;;17.21;69.38;101491.66;5004789;28;20105;-80
2022/06/12 06:31:46;;;;;;;8.73;2.75;;;;;;;17.35;68.44;101488.69;5006814;28;20053;-79
2022/06/12 06:34:16;;;;;;;9.00;2.15;;;;;;;17.43;68.17;101485.84;4986987;28;20331;-83
2022/06/12 06:36:45;;;;;;;6.55;3.55;;;;;;;17.51;68.05;101484.75;5010950;28;20033;-83
2022/06/12 06:39:15;;;;;;;7.28;2.42;;;;;;;17.65;67.58;101484.44;4995677;28;20049;-82
2022/06/12 06:41:42;;;;;;;8.63;2.42;;;;;;;17.78;66.34;101484.09;5026425;28;20053;-83
2022/06/12 06:46:56;;;;;;;8.90;2.92;;;;;;;17.94;64.64;101484.59;5003616;28;20376;-80
2022/06/12 06:49:24;;;;;;;8.50;3.50;;;;;;;17.98;64.94;101483.63;5006180;28;20033;-81
2022/06/12 06:51:55;;;;;;;5.55;2.53;;;;;;;18.05;65.26;101484.31;5005769;28;20133;-80
2022/06/12 06:54:24;;;;;;;5.70;2.28;;;;;;;18.14;64.85;101484.06;5005731;28;20051;-81
2022/06/12 06:56:51;;;;;;;8.02;2.97;;;;;;;18.21;64.78;101482.97;5012738;28;20069;-82
2022/06/12 06:59:32;;;;;;;10.77;3.05;;;;;;;18.31;63.37;101475.66;5021369;28;20037;-83
2022/06/12 07:02:06;;;;;;;10.73;2.72;;;;;;;18.42;62.89;101483.28;5025653;28;20045;-86
2022/06/12 07:04:34;;;;;;;6.60;2.05;;;;;;;18.47;62.25;101479.63;5009775;28;20042;-83
2022/06/12 07:07:01;;;;;;;8.45;2.45;;;;;;;18.50;61.05;101476.88;5010574;28;20061;-85
2022/06/12 07:09:28;;;;;;;8.75;2.33;;;;;;;18.53;61.40;101478.56;5022726;28;20049;-85
2022/06/12 07:11:55;;;;;;;6.25;2.17;;;;;;;18.60;61.12;101488.06;5019380;28;20570;-81
2022/06/12 07:14:25;;;;;;;11.23;3.50;;;;;;;18.70;60.20;101478.06;5008910;28;20068;-80
2022/06/12 07:16:55;;;;;;;8.07;2.13;;;;;;;18.75;60.63;101481.44;5028334;28;20139;-84
2022/06/12 07:19:29;;;;;;;8.45;2.67;;;;;;;18.87;60.03;101474.91;4995163;28;20080;-84
2022/06/12 07:22:00;;;;;;;8.85;2.17;;;;;;;18.96;59.26;101482.59;5007163;28;20053;-83
2022/06/12 07:24:31;;;;;;;9.07;3.00;;;;;;;19.16;57.84;101479.34;4993207;28;20499;-82
2022/06/12 07:26:58;;;;;;;8.10;3.17;;;;;;;19.48;56.97;101473.91;4978362;28;20053;-82
2022/06/12 07:29:26;;;;;;;5.70;1.70;;;;;;;19.89;53.29;101484.06;5009432;28;20131;-83
2022/06/12 07:31:56;;;;;;;7.68;1.75;;;;;;;20.35;51.56;101484.22;4992503;28;20049;-86
2022/06/12 07:34:23;;;;;;;4.97;1.77;;;;;;;20.98;47.76;101482.72;5001486;28;20045;-85
2022/06/12 07:36:53;;;;;;;5.13;1.55;;;;;;;21.53;45.95;101478.72;5031002;28;20038;-84
2022/06/12 07:39:34;;;;;;;5.95;1.38;;;;;;;22.17;43.81;101476.91;5010758;28;20064;-82
2022/06/12 07:42:09;;;;;;;4.10;1.73;;;;;;;22.82;43.35;101474.00;5009936;28;20049;-82
2022/06/12 07:44:38;;;;;;;4.60;1.63;;;;;;;23.41;41.99;101476.53;5001505;28;20037;-81
2022/06/12 07:47:06;;;;;;;4.05;1.48;;;;;;;23.83;40.25;101480.63;5005315;28;20064;-83
2022/06/12 07:49:37;;;;;;;3.15;1.40;;;;;;;24.21;38.03;101475.09;5018807;28;20530;-83
2022/06/12 07:52:09;;;;;;;2.58;0.95;;;;;;;24.44;36.84;101478.34;4991796;28;20123;-83
2022/06/12 07:54:37;;;;;;;3.30;1.27;;;;;;;24.55;37.59;101473.28;5010985;28;20052;-80
2022/06/12 07:57:08;;;;;;;5.35;1.45;;;;;;;24.73;36.39;101475.91;5013742;28;20131;-82
2022/06/12 07:59:44;;;;;;;4.97;1.35;;;;;;;25.01;36.07;101475.22;5001780;28;20049;-85
2022/06/12 08:02:12;;;;;;;4.18;1.40;;;;;;;25.21;35.27;101487.50;5008347;28;20076;-84
2022/06/12 08:04:41;;;;;;;6.03;0.93;;;;;;;25.48;34.47;101489.53;5024890;28;20096;-83
2022/06/12 08:07:14;;;;;;;7.40;1.95;;;;;;;25.69;34.74;101486.53;4993002;28;20064;-82
2022/06/12 08:09:42;;;;;;;5.53;1.08;;;;;;;26.27;34.07;101498.28;5006691;28;20045;-80
2022/06/12 08:12:10;;;;;;;5.72;1.38;;;;;;;26.58;33.22;101497.19;5005027;28;20124;-81
2022/06/12 08:14:54;;;;;;;7.43;2.63;;;;;;;26.34;32.82;101493.38;5007922;28;20041;-81
2022/06/12 08:17:21;;;;;;;4.90;1.95;;;;;;;26.15;33.77;101488.28;5012133;28;20065;-83
2022/06/12 08:22:34;;;;;;;4.15;1.10;;;;;;;26.84;32.66;101500.09;4992369;28;20140;-83
2022/06/12 08:27:49;;;;;;;7.97;1.30;;;;;;;27.32;31.26;101498.78;4984610;28;20054;-84
2022/06/12 08:33:15;;;;;;;7.43;1.50;;;;;;;28.03;30.98;101504.78;5011659;28;20033;-81
2022/06/12 08:42:04;;;;;;;3.63;1.35;;;;;;;28.20;30.05;101498.25;5021133;28;20491;-85
2022/06/12 08:44:59;;;;;;;4.28;1.92;;;;;;;28.01;30.25;101499.47;4991542;28;20100;-83
2022/06/12 08:47:49;;;;;;;3.83;1.13;;;;;;;28.51;29.80;101491.53;5007407;28;20056;-82
2022/06/12 08:50:36;;;;;;;3.63;1.58;;;;;;;29.37;28.31;101494.31;5004614;28;20116;-85
2022/06/12 08:53:48;;;;;;;3.45;1.40;;;;;;;29.56;28.72;101491.09;5007998;28;20056;-83
2022/06/12 08:56:24;;;;;;;5.40;1.95;;;;;;;30.19;28.05;101491.63;5013251;28;20788;-85
2022/06/12 08:58:58;;;;;;;5.80;1.50;;;;;;;30.55;27.52;101485.25;4999033;28;20049;-83
2022/06/12 09:01:24;;;;;;;6.03;1.52;;;;;;;30.09;27.60;101492.44;5009121;28;20479;-82
2022/06/12 09:03:54;;;;;;;6.55;1.55;;;;;;;30.27;27.20;101485.63;5016019;28;20040;-84
2022/06/12 09:06:46;;;;;;;7.00;2.13;;;;;;;30.41;27.09;101475.53;4994665;28;20794;-84
2022/06/12 09:09:20;;;;;;;5.47;1.45;;;;;;;30.46;27.10;101473.31;5007096;28;20055;-82
2022/06/12 09:11:52;;;;;;;6.43;1.52;;;;;;;30.03;27.48;101473.06;5024410;28;20065;-81
2022/06/12 09:14:54;;;;;;;7.60;1.63;;;;;;;29.92;27.09;101464.09;4992441;28;20099;-84
2022/06/12 09:17:39;;;;;;;5.75;1.67;;;;;;;30.10;27.68;101468.03;5011843;28;20399;-83
2022/06/12 09:20:42;;;;;;;4.10;1.23;;;;;;;30.42;26.77;101470.00;5011167;28;20428;-82
2022/06/12 09:23:29;;;;;;;5.13;1.73;;;;;;;31.11;25.94;101466.25;4992874;28;20130;-85
2022/06/12 09:26:27;;;;;;;5.30;1.40;;;;;;;31.97;25.12;101463.47;5030064;28;20528;-81
2022/06/12 09:29:26;;;;;;;5.70;1.42;;;;;;;32.75;24.56;101462.09;5029518;28;20721;-81
2022/06/12 09:32:32;;;;;;;4.38;1.15;;;;;;;33.13;23.38;101463.16;5012215;28;20518;-85
2022/06/12 09:35:06;;;;;;;3.40;1.33;;;;;;;33.18;24.25;101460.88;5010839;28;20421;-83
2022/06/12 09:38:28;;;;;;;4.53;1.20;;;;;;;32.63;23.46;101462.19;5016590;28;20041;-81
2022/06/12 09:41:23;;;;;;;4.00;1.30;;;;;;;31.28;24.98;101459.41;5009472;28;20785;-82
2022/06/12 09:44:18;;;;;;;4.82;1.60;;;;;;;30.34;26.07;101462.50;4994595;28;20066;-84
2022/06/12 09:47:38;;;;;;;3.92;1.13;;;;;;;30.89;25.82;101459.03;5014163;28;20038;-82
2022/06/12 09:50:53;;;;;;;6.40;1.48;;;;;;;31.14;25.18;101465.13;4995075;28;20072;-83
2022/06/12 09:53:42;;;;;;;4.97;1.75;;;;;;;31.67;25.13;101450.75;5009754;28;20064;-82
2022/06/12 09:56:29;;;;;;;5.90;1.42;;;;;;;32.11;24.23;101442.44;5018996;28;20029;-86
2022/06/12 09:59:26;;;;;;;7.22;1.63;;;;;;;32.04;24.04;101452.09;5029424;28;20061;-85
2022/06/12 10:02:00;;;;;;;3.22;1.15;;;;;;;31.30;25.13;101449.34;5015785;28;20483;-85
2022/06/12 10:04:43;;;;;;;2.83;1.20;;;;;;;31.10;25.21;101439.34;4996888;28;20129;-81
2022/06/12 10:07:33;;;;;;;;;;;;;;;30.37;25.09;101439.81;5013678;28;20050;-82
2022/06/12 10:10:39;;;;;;;4.88;1.55;;;;;;;31.42;24.61;101423.06;5023332;28;19975;-84
2022/06/12 10:13:28;;;;;;;4.28;1.42;;;;;;;32.62;23.37;101422.53;4998699;28;20500;-82
2022/06/12 10:16:11;;;;;;;6.95;1.42;;;;;;;33.21;22.50;101427.19;5006519;28;20045;-82
2022/06/12 10:21:40;;;;;;;2.65;1.38;;;;;;;32.78;23.23;101413.03;5037976;28;20045;-88
2022/06/12 10:24:10;;;;;;;3.92;1.45;;;;;;;33.13;23.09;101425.19;4999024;28;20045;-85
2022/06/12 10:27:07;;;;;;;5.00;1.58;;;;;;;32.90;22.63;101413.75;5017280;28;20073;-85
2022/06/12 10:32:56;;;;;;;4.72;1.67;;;;;;;30.06;25.21;101419.81;5013906;28;20040;-85
2022/06/12 10:35:26;;;;;;;4.22;1.13;;;;;;;30.67;25.19;101417.56;5006438;28;20076;-86
2022/06/12 10:38:06;;;;;;;2.65;1.20;;;;;;;32.20;23.26;101409.13;5013697;28;20045;-88
2022/06/12 10:40:40;;;;;;;2.90;1.20;;;;;;;31.64;22.94;101400.47;5028767;28;20030;-86
2022/06/12 10:43:26;;;;;;;3.58;1.00;;;;;;;30.46;24.03;101392.28;5033061;28;20073;-82
2022/06/12 10:46:11;;;;;;;3.05;1.08;;;;;;;31.44;23.48;101401.28;5018492;28;20041;-88
2022/06/12 10:48:37;;;;;;;4.00;1.08;;;;;;;31.06;24.00;101395.47;5021339;28;20056;-87
2022/06/12 10:51:42;;;;;;;4.57;1.30;;;;;;;30.91;24.12;101402.13;5025495;28;20047;-86
2022/06/12 10:54:24;;;;;;;3.28;0.90;;;;;;;31.72;23.05;101393.50;4983004;28;20088;-81
2022/06/12 10:57:31;;;;;;;2.42;1.10;;;;;;;32.23;22.20;101389.91;5000460;28;20044;-84
2022/06/12 11:00:16;;;;;;;2.92;1.02;;;;;;;32.49;21.44;101375.88;5013656;28;20092;-84
2022/06/12 11:03:36;;;;;;;1.17;0.50;;;;;;;32.39;21.75;101378.53;4977784;28;20526;-80
2022/06/12 11:06:15;;;;;;;2.80;1.02;;;;;;;32.00;21.66;101375.69;4994573;28;20038;-83
2022/06/12 11:09:21;;;;;;;1.02;0.93;;;;;;;30.50;23.22;101377.56;4996421;28;20072;-84
2022/06/12 11:12:33;;;;;;;5.22;1.25;;;;;;;31.16;22.44;101369.34;4986400;28;20054;-83
2022/06/12 11:15:23;;;;;;;2.63;1.00;;;;;;;31.13;23.09;101371.47;4992644;28;20065;-83
2022/06/12 11:18:18;;;;;;;2.95;0.88;;;;;;;31.49;22.95;101367.44;4995736;28;20057;-86
2022/06/12 11:21:27;;;;;;;3.22;1.70;;;;;;;32.68;22.14;101366.03;4974239;28;20054;-81
2022/06/12 11:24:25;;;;;;;2.00;0.90;;;;;;;32.81;21.72;101363.94;4999128;28;20049;-81
2022/06/12 11:27:25;;;;;;;2.13;1.10;;;;;;;32.01;23.16;101363.88;4998063;28;20042;-81
2022/06/12 11:30:40;;;;;;;3.67;1.25;;;;;;;31.74;23.28;101361.75;4998248;28;20054;-86
2022/06/12 11:33:51;;;;;;;3.58;1.17;;;;;;;31.36;23.69;101349.72;4939166;28;20515;-81
2022/06/12 11:36:35;;;;;;;2.00;1.02;;;;;;;31.53;23.39;101359.91;5014731;28;20063;-85
2022/06/12 11:39:29;;;;;;;1.75;0.77;;;;;;;31.45;23.53;101351.63;4981625;28;20044;-84
2022/06/12 11:42:30;;;;;;;4.10;1.20;;;;;;;31.56;22.56;101350.66;4995453;28;20468;-84
2022/06/12 11:45:26;;;;;;;1.38;0.65;;;;;;;31.91;22.23;101352.16;5011710;28;20042;-82
2022/06/12 11:48:06;;;;;;;5.38;1.17;;;;;;;32.36;21.61;101349.03;5014699;28;20054;-87
2022/06/12 11:51:28;;;;;;;3.22;1.63;;;;;;;31.95;22.41;101353.56;5010807;28;20065;-89
2022/06/12 11:54:42;;;;;;;5.43;1.42;;;;;;;31.21;23.66;101349.16;5007127;28;20054;-86
2022/06/12 11:57:59;;;;;;;3.75;1.27;;;;;;;32.03;22.93;101340.19;5005132;28;20133;-83
2022/06/12 12:00:40;;;;;;;3.80;1.08;;;;;;;33.07;21.71;101341.66;5010986;28;20042;-85
2022/06/12 12:04:06;;;;;;;2.83;0.90;;;;;;;33.57;20.87;101346.88;5018014;28;20042;-83
2022/06/12 12:06:52;;;;;;;4.82;1.08;;;;;;;34.36;20.54;101346.53;5015988;28;20124;-84
2022/06/12 12:09:37;;;;;;;1.52;1.10;;;;;;;34.10;20.27;101347.22;5014594;28;20042;-82
2022/06/12 12:12:19;;;;;;;5.40;1.23;;;;;;;34.24;19.66;101345.88;5010696;28;20045;-85
2022/06/12 12:14:50;;;;;;;3.33;0.85;;;;;;;35.20;19.22;101338.97;4991471;28;20053;-83
2022/06/12 12:17:42;;;;;;;2.33;0.80;;;;;;;35.99;18.36;101342.53;5004117;28;20057;-85
2022/06/12 12:20:39;;;;;;;2.33;0.80;;;;;;;36.55;18.02;101334.69;5011411;28;20057;-83
2022/06/12 12:23:20;;;;;;;1.67;0.65;;;;;;;36.71;17.88;101346.63;4993663;28;20113;-82
2022/06/12 12:26:31;;;;;;;2.93;0.87;;;;;;;35.00;19.09;101343.75;5009019;28;20096;-81
2022/06/12 12:29:16;;;;;;;1.65;1.00;;;;;;;33.54;20.71;101340.88;4991300;28;20393;-83
2022/06/12 12:31:52;;;;;;;2.70;0.55;;;;;;;33.24;21.18;101338.19;5002350;28;20149;-84
2022/06/12 12:34:23;;;;;;;5.10;0.90;;;;;;;33.83;20.07;101335.34;4990206;28;20799;-82
2022/06/12 12:42:40;;;;;;;2.45;0.93;;;;;;;34.43;19.03;101336.75;4981542;28;20164;-87
2022/06/12 12:45:25;;;;;;;2.08;0.60;;;;;;;35.85;17.78;101324.91;4995552;28;20084;-86
2022/06/12 12:48:07;;;;;;;1.83;0.60;;;;;;;35.70;18.32;101324.66;5016612;28;20393;-82
2022/06/12 12:51:01;;;;;;;7.13;0.90;;;;;;;36.33;17.21;101319.78;4999485;28;20393;-83
2022/06/12 12:53:32;;;;;;;1.92;0.52;;;;;;;36.98;16.48;101320.06;5010497;28;20053;-85
2022/06/12 12:56:12;;;;;;;1.95;0.60;;;;;;;37.19;16.34;101314.06;5013148;28;20049;-83
2022/06/12 13:01:50;;;;;;;3.30;0.80;;;;;;;35.82;16.93;101318.94;5008852;28;20049;-82
2022/06/12 13:07:57;;;;;;;2.55;0.68;;;;;;;37.21;16.11;101323.78;5014929;28;20037;-85
2022/06/12 13:11:02;;;;;;;1.83;0.75;;;;;;;37.89;15.42;101320.72;5010367;28;20044;-82
2022/06/12 13:14:01;;;;;;;1.13;0.77;;;;;;;38.05;14.93;101317.88;5014408;28;20124;-83
2022/06/12 13:16:50;;;;;;;2.40;0.60;;;;;;;38.46;15.04;101326.88;4989407;28;20159;-85